sensor_id;sensor_type;location;lat;lon;timestamp;P1;durP1;ratioP1;P2;durP2;ratioP2
42244;SDS011;27912;51.828;5.688;2022-11-12T00:00:52;26.90;;;16.80;;
42244;SDS011;27912;51.828;5.688;2022-11-12T00:03:18;31.02;;;17.98;;
42244;SDS011;27912;51.828;5.688;2022-11-12T00:05:44;28.73;;;17.35;;
42244;SDS011;27912;51.828;5.688;2022-11-12T00:08:11;26.65;;;16.48;;
42244;SDS011;27912;51.828;5.688;2022-11-12T00:10:37;30.42;;;18.00;;
42244;SDS011;27912;51.828;5.688;2022-11-12T00:13:03;30.38;;;17.83;;
42244;SDS011;27912;51.828;5.688;2022-11-12T00:15:28;28.85;;;17.25;;
42244;SDS011;27912;51.828;5.688;2022-11-12T00:17:54;31.80;;;17.42;;
42244;SDS011;27912;51.828;5.688;2022-11-12T00:20:19;30.33;;;17.90;;
42244;SDS011;27912;51.828;5.688;2022-11-12T00:22:45;30.25;;;17.45;;
42244;SDS011;27912;51.828;5.688;2022-11-12T00:25:10;32.70;;;17.85;;
42244;SDS011;27912;51.828;5.688;2022-11-12T00:27:36;27.08;;;16.70;;
42244;SDS011;27912;51.828;5.688;2022-11-12T00:30:02;27.30;;;17.52;;
42244;SDS011;27912;51.828;5.688;2022-11-12T00:32:28;27.98;;;18.40;;
42244;SDS011;27912;51.828;5.688;2022-11-12T00:34:54;26.58;;;17.00;;
42244;SDS011;27912;51.828;5.688;2022-11-12T00:37:19;27.30;;;17.98;;
42244;SDS011;27912;51.828;5.688;2022-11-12T00:39:47;29.33;;;17.13;;
42244;SDS011;27912;51.828;5.688;2022-11-12T00:42:12;28.25;;;16.33;;
42244;SDS011;27912;51.828;5.688;2022-11-12T00:44:38;27.15;;;16.90;;
42244;SDS011;27912;51.828;5.688;2022-11-12T00:47:03;28.85;;;17.08;;
42244;SDS011;27912;51.828;5.688;2022-11-12T00:49:29;32.17;;;18.42;;
42244;SDS011;27912;51.828;5.688;2022-11-12T00:51:54;33.72;;;17.88;;
42244;SDS011;27912;51.828;5.688;2022-11-12T00:54:20;29.83;;;18.40;;
42244;SDS011;27912;51.828;5.688;2022-11-12T00:56:46;30.25;;;16.58;;
42244;SDS011;27912;51.828;5.688;2022-11-12T00:59:12;32.10;;;17.85;;
42244;SDS011;27912;51.828;5.688;2022-11-12T01:01:37;29.85;;;17.98;;
42244;SDS011;27912;51.828;5.688;2022-11-12T01:04:03;34.60;;;18.30;;
42244;SDS011;27912;51.828;5.688;2022-11-12T01:06:29;29.77;;;18.75;;
42244;SDS011;27912;51.828;5.688;2022-11-12T01:08:55;32.13;;;17.90;;
42244;SDS011;27912;51.828;5.688;2022-11-12T01:11:22;30.38;;;17.52;;
42244;SDS011;27912;51.828;5.688;2022-11-12T01:13:57;31.00;;;18.05;;
42244;SDS011;27912;51.828;5.688;2022-11-12T01:16:26;31.60;;;19.55;;
42244;SDS011;27912;51.828;5.688;2022-11-12T01:18:55;31.55;;;18.75;;
42244;SDS011;27912;51.828;5.688;2022-11-12T01:21:23;29.02;;;17.27;;
42244;SDS011;27912;51.828;5.688;2022-11-12T01:23:50;30.92;;;17.30;;
42244;SDS011;27912;51.828;5.688;2022-11-12T01:26:16;27.50;;;17.02;;
42244;SDS011;27912;51.828;5.688;2022-11-12T01:28:44;31.60;;;18.23;;
42244;SDS011;27912;51.828;5.688;2022-11-12T01:31:23;30.88;;;17.52;;
42244;SDS011;27912;51.828;5.688;2022-11-12T01:33:54;31.50;;;18.20;;
42244;SDS011;27912;51.828;5.688;2022-11-12T01:36:21;30.83;;;17.85;;
42244;SDS011;27912;51.828;5.688;2022-11-12T01:38:47;27.52;;;16.67;;
42244;SDS011;27912;51.828;5.688;2022-11-12T01:41:15;29.92;;;17.33;;
42244;SDS011;27912;51.828;5.688;2022-11-12T01:47:04;30.90;;;17.73;;
42244;SDS011;27912;51.828;5.688;2022-11-12T01:49:48;30.23;;;17.42;;
42244;SDS011;27912;51.828;5.688;2022-11-12T01:52:26;30.33;;;17.30;;
42244;SDS011;27912;51.828;5.688;2022-11-12T01:54:56;31.42;;;17.58;;
42244;SDS011;27912;51.828;5.688;2022-11-12T01:57:36;29.63;;;16.35;;
42244;SDS011;27912;51.828;5.688;2022-11-12T02:00:09;30.23;;;15.88;;
42244;SDS011;27912;51.828;5.688;2022-11-12T02:02:37;28.10;;;16.42;;
42244;SDS011;27912;51.828;5.688;2022-11-12T02:05:05;27.15;;;17.15;;
42244;SDS011;27912;51.828;5.688;2022-11-12T02:07:33;29.33;;;16.70;;
42244;SDS011;27912;51.828;5.688;2022-11-12T02:10:02;27.60;;;17.10;;
42244;SDS011;27912;51.828;5.688;2022-11-12T02:12:29;26.70;;;16.00;;
42244;SDS011;27912;51.828;5.688;2022-11-12T02:15:13;29.35;;;16.50;;
42244;SDS011;27912;51.828;5.688;2022-11-12T02:17:39;29.38;;;17.77;;
42244;SDS011;27912;51.828;5.688;2022-11-12T02:20:07;32.33;;;17.00;;
42244;SDS011;27912;51.828;5.688;2022-11-12T02:22:34;28.02;;;16.42;;
42244;SDS011;27912;51.828;5.688;2022-11-12T02:25:00;29.60;;;16.80;;
42244;SDS011;27912;51.828;5.688;2022-11-12T02:27:25;28.77;;;17.30;;
42244;SDS011;27912;51.828;5.688;2022-11-12T02:29:52;31.45;;;17.45;;
42244;SDS011;27912;51.828;5.688;2022-11-12T02:32:17;26.10;;;16.48;;
42244;SDS011;27912;51.828;5.688;2022-11-12T02:34:43;31.85;;;17.95;;
42244;SDS011;27912;51.828;5.688;2022-11-12T02:37:09;26.30;;;17.60;;
42244;SDS011;27912;51.828;5.688;2022-11-12T02:39:34;26.85;;;17.25;;
42244;SDS011;27912;51.828;5.688;2022-11-12T02:42:00;30.38;;;18.45;;
42244;SDS011;27912;51.828;5.688;2022-11-12T02:44:26;29.17;;;16.83;;
42244;SDS011;27912;51.828;5.688;2022-11-12T02:46:52;31.48;;;17.70;;
42244;SDS011;27912;51.828;5.688;2022-11-12T02:49:17;27.05;;;16.98;;
42244;SDS011;27912;51.828;5.688;2022-11-12T02:51:43;29.30;;;17.70;;
42244;SDS011;27912;51.828;5.688;2022-11-12T02:54:08;26.40;;;15.70;;
42244;SDS011;27912;51.828;5.688;2022-11-12T02:56:34;29.42;;;16.83;;
42244;SDS011;27912;51.828;5.688;2022-11-12T02:59:00;25.27;;;15.55;;
42244;SDS011;27912;51.828;5.688;2022-11-12T03:01:25;26.65;;;17.05;;
42244;SDS011;27912;51.828;5.688;2022-11-12T03:03:51;26.92;;;17.45;;
42244;SDS011;27912;51.828;5.688;2022-11-12T03:06:16;32.22;;;16.08;;
42244;SDS011;27912;51.828;5.688;2022-11-12T03:08:42;25.70;;;16.38;;
42244;SDS011;27912;51.828;5.688;2022-11-12T03:11:08;31.77;;;16.25;;
42244;SDS011;27912;51.828;5.688;2022-11-12T03:13:35;25.63;;;15.43;;
42244;SDS011;27912;51.828;5.688;2022-11-12T03:16:01;26.02;;;16.77;;
42244;SDS011;27912;51.828;5.688;2022-11-12T03:18:27;25.23;;;15.85;;
42244;SDS011;27912;51.828;5.688;2022-11-12T03:20:53;36.10;;;17.10;;
42244;SDS011;27912;51.828;5.688;2022-11-12T03:23:18;27.52;;;15.73;;
42244;SDS011;27912;51.828;5.688;2022-11-12T03:25:44;31.73;;;16.15;;
42244;SDS011;27912;51.828;5.688;2022-11-12T03:28:10;28.60;;;16.05;;
42244;SDS011;27912;51.828;5.688;2022-11-12T03:30:38;27.08;;;16.10;;
42244;SDS011;27912;51.828;5.688;2022-11-12T03:33:05;27.35;;;15.77;;
42244;SDS011;27912;51.828;5.688;2022-11-12T03:35:31;26.08;;;17.08;;
42244;SDS011;27912;51.828;5.688;2022-11-12T03:37:57;31.73;;;15.20;;
42244;SDS011;27912;51.828;5.688;2022-11-12T03:40:23;27.65;;;14.90;;
42244;SDS011;27912;51.828;5.688;2022-11-12T03:42:49;23.58;;;15.40;;
42244;SDS011;27912;51.828;5.688;2022-11-12T03:45:16;26.42;;;15.07;;
42244;SDS011;27912;51.828;5.688;2022-11-12T03:47:43;30.13;;;16.50;;
42244;SDS011;27912;51.828;5.688;2022-11-12T03:50:11;27.50;;;15.98;;
42244;SDS011;27912;51.828;5.688;2022-11-12T03:52:38;29.48;;;16.02;;
42244;SDS011;27912;51.828;5.688;2022-11-12T03:55:08;29.45;;;16.40;;
42244;SDS011;27912;51.828;5.688;2022-11-12T03:57:34;31.08;;;17.08;;
42244;SDS011;27912;51.828;5.688;2022-11-12T03:59:59;26.85;;;16.23;;
42244;SDS011;27912;51.828;5.688;2022-11-12T04:02:25;31.55;;;17.27;;
42244;SDS011;27912;51.828;5.688;2022-11-12T04:04:53;27.48;;;15.68;;
42244;SDS011;27912;51.828;5.688;2022-11-12T04:07:37;25.90;;;15.43;;
42244;SDS011;27912;51.828;5.688;2022-11-12T04:10:21;30.05;;;16.20;;
42244;SDS011;27912;51.828;5.688;2022-11-12T04:12:47;29.27;;;16.58;;
42244;SDS011;27912;51.828;5.688;2022-11-12T04:15:31;30.10;;;15.73;;
42244;SDS011;27912;51.828;5.688;2022-11-12T04:17:57;30.10;;;16.98;;
42244;SDS011;27912;51.828;5.688;2022-11-12T04:20:41;30.63;;;16.40;;
42244;SDS011;27912;51.828;5.688;2022-11-12T04:23:25;27.80;;;16.17;;
42244;SDS011;27912;51.828;5.688;2022-11-12T04:25:51;29.45;;;17.08;;
42244;SDS011;27912;51.828;5.688;2022-11-12T04:28:35;28.27;;;16.48;;
42244;SDS011;27912;51.828;5.688;2022-11-12T04:31:01;27.13;;;15.60;;
42244;SDS011;27912;51.828;5.688;2022-11-12T04:33:26;27.77;;;15.90;;
42244;SDS011;27912;51.828;5.688;2022-11-12T04:35:52;26.42;;;16.27;;
42244;SDS011;27912;51.828;5.688;2022-11-12T04:38:17;31.60;;;15.15;;
42244;SDS011;27912;51.828;5.688;2022-11-12T04:40:43;26.55;;;15.30;;
42244;SDS011;27912;51.828;5.688;2022-11-12T04:43:27;28.08;;;16.02;;
42244;SDS011;27912;51.828;5.688;2022-11-12T04:46:11;27.67;;;15.23;;
42244;SDS011;27912;51.828;5.688;2022-11-12T04:48:36;30.10;;;16.55;;
42244;SDS011;27912;51.828;5.688;2022-11-12T04:51:03;25.42;;;14.93;;
42244;SDS011;27912;51.828;5.688;2022-11-12T04:53:52;25.50;;;15.07;;
42244;SDS011;27912;51.828;5.688;2022-11-12T04:56:18;31.50;;;15.82;;
42244;SDS011;27912;51.828;5.688;2022-11-12T04:58:44;29.65;;;15.55;;
42244;SDS011;27912;51.828;5.688;2022-11-12T05:01:10;27.95;;;15.40;;
42244;SDS011;27912;51.828;5.688;2022-11-12T05:03:35;28.60;;;15.10;;
42244;SDS011;27912;51.828;5.688;2022-11-12T05:06:02;27.85;;;14.80;;
42244;SDS011;27912;51.828;5.688;2022-11-12T05:08:49;24.65;;;13.82;;
42244;SDS011;27912;51.828;5.688;2022-11-12T05:11:14;27.10;;;14.73;;
42244;SDS011;27912;51.828;5.688;2022-11-12T05:13:40;25.92;;;14.38;;
42244;SDS011;27912;51.828;5.688;2022-11-12T05:16:05;24.17;;;14.15;;
42244;SDS011;27912;51.828;5.688;2022-11-12T05:18:31;25.65;;;14.55;;
42244;SDS011;27912;51.828;5.688;2022-11-12T05:20:57;29.75;;;15.77;;
42244;SDS011;27912;51.828;5.688;2022-11-12T05:23:42;21.10;;;13.60;;
42244;SDS011;27912;51.828;5.688;2022-11-12T05:26:07;24.90;;;14.60;;
42244;SDS011;27912;51.828;5.688;2022-11-12T05:28:33;25.15;;;13.60;;
42244;SDS011;27912;51.828;5.688;2022-11-12T05:30:58;23.48;;;13.80;;
42244;SDS011;27912;51.828;5.688;2022-11-12T05:33:24;25.00;;;13.57;;
42244;SDS011;27912;51.828;5.688;2022-11-12T05:35:49;30.77;;;14.05;;
42244;SDS011;27912;51.828;5.688;2022-11-12T05:38:15;26.55;;;13.80;;
42244;SDS011;27912;51.828;5.688;2022-11-12T05:40:43;27.08;;;12.63;;
42244;SDS011;27912;51.828;5.688;2022-11-12T05:43:09;25.13;;;14.15;;
42244;SDS011;27912;51.828;5.688;2022-11-12T05:45:34;23.63;;;13.07;;
42244;SDS011;27912;51.828;5.688;2022-11-12T05:48:00;23.92;;;13.57;;
42244;SDS011;27912;51.828;5.688;2022-11-12T05:50:25;25.10;;;13.02;;
42244;SDS011;27912;51.828;5.688;2022-11-12T05:52:51;19.58;;;12.55;;
42244;SDS011;27912;51.828;5.688;2022-11-12T05:55:16;24.50;;;13.48;;
42244;SDS011;27912;51.828;5.688;2022-11-12T05:57:42;26.30;;;12.82;;
42244;SDS011;27912;51.828;5.688;2022-11-12T06:00:08;22.52;;;13.15;;
42244;SDS011;27912;51.828;5.688;2022-11-12T06:02:34;24.00;;;12.85;;
42244;SDS011;27912;51.828;5.688;2022-11-12T06:04:59;27.63;;;12.23;;
42244;SDS011;27912;51.828;5.688;2022-11-12T06:07:25;21.73;;;12.35;;
42244;SDS011;27912;51.828;5.688;2022-11-12T06:09:50;25.30;;;12.68;;
42244;SDS011;27912;51.828;5.688;2022-11-12T06:12:15;25.40;;;13.40;;
42244;SDS011;27912;51.828;5.688;2022-11-12T06:14:41;28.77;;;13.18;;
42244;SDS011;27912;51.828;5.688;2022-11-12T06:17:07;21.88;;;11.82;;
42244;SDS011;27912;51.828;5.688;2022-11-12T06:19:32;25.55;;;13.35;;
42244;SDS011;27912;51.828;5.688;2022-11-12T06:21:58;25.60;;;12.63;;
42244;SDS011;27912;51.828;5.688;2022-11-12T06:24:23;26.05;;;12.02;;
42244;SDS011;27912;51.828;5.688;2022-11-12T06:26:49;20.13;;;11.55;;
42244;SDS011;27912;51.828;5.688;2022-11-12T06:29:14;22.42;;;11.45;;
42244;SDS011;27912;51.828;5.688;2022-11-12T06:31:40;25.67;;;11.05;;
42244;SDS011;27912;51.828;5.688;2022-11-12T06:34:06;20.75;;;11.63;;
42244;SDS011;27912;51.828;5.688;2022-11-12T06:36:33;25.15;;;11.02;;
42244;SDS011;27912;51.828;5.688;2022-11-12T06:38:59;22.65;;;11.65;;
42244;SDS011;27912;51.828;5.688;2022-11-12T06:41:25;20.80;;;11.10;;
42244;SDS011;27912;51.828;5.688;2022-11-12T06:43:50;17.55;;;10.63;;
42244;SDS011;27912;51.828;5.688;2022-11-12T06:46:16;21.85;;;11.02;;
42244;SDS011;27912;51.828;5.688;2022-11-12T06:48:42;19.17;;;11.30;;
42244;SDS011;27912;51.828;5.688;2022-11-12T06:51:09;20.63;;;11.15;;
42244;SDS011;27912;51.828;5.688;2022-11-12T06:53:36;26.75;;;11.73;;
42244;SDS011;27912;51.828;5.688;2022-11-12T06:56:03;20.58;;;11.32;;
42244;SDS011;27912;51.828;5.688;2022-11-12T06:58:29;18.42;;;10.30;;
42244;SDS011;27912;51.828;5.688;2022-11-12T07:00:55;19.77;;;10.63;;
42244;SDS011;27912;51.828;5.688;2022-11-12T07:03:20;27.17;;;11.38;;
42244;SDS011;27912;51.828;5.688;2022-11-12T07:05:46;16.60;;;10.10;;
42244;SDS011;27912;51.828;5.688;2022-11-12T07:08:11;21.85;;;11.70;;
42244;SDS011;27912;51.828;5.688;2022-11-12T07:10:37;19.65;;;10.52;;
42244;SDS011;27912;51.828;5.688;2022-11-12T07:13:03;18.95;;;11.00;;
42244;SDS011;27912;51.828;5.688;2022-11-12T07:15:28;17.45;;;11.02;;
42244;SDS011;27912;51.828;5.688;2022-11-12T07:17:54;21.40;;;10.98;;
42244;SDS011;27912;51.828;5.688;2022-11-12T07:20:19;21.20;;;10.65;;
42244;SDS011;27912;51.828;5.688;2022-11-12T07:22:45;19.67;;;11.38;;
42244;SDS011;27912;51.828;5.688;2022-11-12T07:25:10;19.42;;;10.95;;
42244;SDS011;27912;51.828;5.688;2022-11-12T07:27:36;19.42;;;11.35;;
42244;SDS011;27912;51.828;5.688;2022-11-12T07:30:02;21.20;;;11.50;;
42244;SDS011;27912;51.828;5.688;2022-11-12T07:32:28;20.80;;;11.52;;
42244;SDS011;27912;51.828;5.688;2022-11-12T07:34:54;18.33;;;11.18;;
42244;SDS011;27912;51.828;5.688;2022-11-12T07:37:19;22.50;;;12.50;;
42244;SDS011;27912;51.828;5.688;2022-11-12T07:39:45;18.55;;;10.93;;
42244;SDS011;27912;51.828;5.688;2022-11-12T07:42:10;21.10;;;12.50;;
42244;SDS011;27912;51.828;5.688;2022-11-12T07:44:36;24.73;;;12.15;;
42244;SDS011;27912;51.828;5.688;2022-11-12T07:47:01;22.73;;;12.57;;
42244;SDS011;27912;51.828;5.688;2022-11-12T07:49:27;24.00;;;13.00;;
42244;SDS011;27912;51.828;5.688;2022-11-12T07:51:52;25.27;;;12.88;;
42244;SDS011;27912;51.828;5.688;2022-11-12T07:54:18;20.02;;;11.85;;
42244;SDS011;27912;51.828;5.688;2022-11-12T07:56:43;23.65;;;12.63;;
42244;SDS011;27912;51.828;5.688;2022-11-12T07:59:09;25.02;;;13.05;;
42244;SDS011;27912;51.828;5.688;2022-11-12T08:01:38;22.42;;;12.90;;
42244;SDS011;27912;51.828;5.688;2022-11-12T08:04:06;22.25;;;12.98;;
42244;SDS011;27912;51.828;5.688;2022-11-12T08:06:33;24.80;;;13.27;;
42244;SDS011;27912;51.828;5.688;2022-11-12T08:09:00;23.70;;;12.57;;
42244;SDS011;27912;51.828;5.688;2022-11-12T08:11:26;23.85;;;12.80;;
42244;SDS011;27912;51.828;5.688;2022-11-12T08:13:52;23.10;;;13.40;;
42244;SDS011;27912;51.828;5.688;2022-11-12T08:16:17;24.13;;;12.98;;
42244;SDS011;27912;51.828;5.688;2022-11-12T08:18:43;23.63;;;13.38;;
42244;SDS011;27912;51.828;5.688;2022-11-12T08:21:10;25.00;;;13.55;;
42244;SDS011;27912;51.828;5.688;2022-11-12T08:23:38;24.13;;;13.23;;
42244;SDS011;27912;51.828;5.688;2022-11-12T08:26:04;23.40;;;13.80;;
42244;SDS011;27912;51.828;5.688;2022-11-12T08:28:32;21.17;;;13.32;;
42244;SDS011;27912;51.828;5.688;2022-11-12T08:31:03;23.42;;;14.05;;
42244;SDS011;27912;51.828;5.688;2022-11-12T08:33:30;21.47;;;13.80;;
42244;SDS011;27912;51.828;5.688;2022-11-12T08:35:56;21.25;;;13.80;;
42244;SDS011;27912;51.828;5.688;2022-11-12T08:38:22;22.35;;;12.80;;
42244;SDS011;27912;51.828;5.688;2022-11-12T08:40:47;22.10;;;12.93;;
42244;SDS011;27912;51.828;5.688;2022-11-12T08:43:13;20.92;;;13.05;;
42244;SDS011;27912;51.828;5.688;2022-11-12T08:45:39;22.45;;;12.88;;
42244;SDS011;27912;51.828;5.688;2022-11-12T08:48:09;20.90;;;13.40;;
42244;SDS011;27912;51.828;5.688;2022-11-12T08:50:37;24.50;;;13.02;;
42244;SDS011;27912;51.828;5.688;2022-11-12T08:53:04;25.85;;;13.35;;
42244;SDS011;27912;51.828;5.688;2022-11-12T08:55:31;23.35;;;13.38;;
42244;SDS011;27912;51.828;5.688;2022-11-12T08:57:58;20.27;;;13.30;;
42244;SDS011;27912;51.828;5.688;2022-11-12T09:00:39;22.42;;;12.43;;
42244;SDS011;27912;51.828;5.688;2022-11-12T09:03:14;20.58;;;12.88;;
42244;SDS011;27912;51.828;5.688;2022-11-12T09:05:44;21.25;;;12.75;;
42244;SDS011;27912;51.828;5.688;2022-11-12T09:08:12;19.23;;;12.25;;
42244;SDS011;27912;51.828;5.688;2022-11-12T09:10:40;20.92;;;11.90;;
42244;SDS011;27912;51.828;5.688;2022-11-12T09:13:05;18.60;;;11.10;;
42244;SDS011;27912;51.828;5.688;2022-11-12T09:15:31;16.90;;;11.20;;
42244;SDS011;27912;51.828;5.688;2022-11-12T09:17:58;17.13;;;10.75;;
42244;SDS011;27912;51.828;5.688;2022-11-12T09:20:28;18.25;;;10.55;;
42244;SDS011;27912;51.828;5.688;2022-11-12T09:23:02;16.65;;;10.55;;
42244;SDS011;27912;51.828;5.688;2022-11-12T09:25:33;17.30;;;10.40;;
42244;SDS011;27912;51.828;5.688;2022-11-12T09:28:09;14.52;;;9.63;;
42244;SDS011;27912;51.828;5.688;2022-11-12T09:30:40;15.68;;;10.23;;
42244;SDS011;27912;51.828;5.688;2022-11-12T09:33:07;17.42;;;11.45;;
42244;SDS011;27912;51.828;5.688;2022-11-12T09:35:33;14.45;;;10.32;;
42244;SDS011;27912;51.828;5.688;2022-11-12T09:37:59;15.00;;;10.80;;
42244;SDS011;27912;51.828;5.688;2022-11-12T09:40:30;14.13;;;10.23;;
42244;SDS011;27912;51.828;5.688;2022-11-12T09:43:08;22.00;;;10.25;;
42244;SDS011;27912;51.828;5.688;2022-11-12T09:45:42;13.82;;;8.95;;
42244;SDS011;27912;51.828;5.688;2022-11-12T09:48:09;15.75;;;9.65;;
42244;SDS011;27912;51.828;5.688;2022-11-12T09:50:41;13.07;;;8.88;;
42244;SDS011;27912;51.828;5.688;2022-11-12T09:53:21;13.35;;;8.80;;
42244;SDS011;27912;51.828;5.688;2022-11-12T09:56:04;15.95;;;8.70;;
42244;SDS011;27912;51.828;5.688;2022-11-12T09:58:31;13.05;;;8.68;;
42244;SDS011;27912;51.828;5.688;2022-11-12T10:00:58;15.43;;;7.80;;
42244;SDS011;27912;51.828;5.688;2022-11-12T10:03:48;12.63;;;7.63;;
42244;SDS011;27912;51.828;5.688;2022-11-12T10:06:18;10.60;;;7.00;;
42244;SDS011;27912;51.828;5.688;2022-11-12T10:09:01;11.05;;;7.25;;
42244;SDS011;27912;51.828;5.688;2022-11-12T10:17:55;9.32;;;6.95;;
42244;SDS011;27912;51.828;5.688;2022-11-12T10:20:42;11.23;;;6.93;;
42244;SDS011;27912;51.828;5.688;2022-11-12T10:23:21;14.40;;;7.63;;
42244;SDS011;27912;51.828;5.688;2022-11-12T10:25:51;13.68;;;8.48;;
42244;SDS011;27912;51.828;5.688;2022-11-12T10:28:23;11.95;;;7.63;;
42244;SDS011;27912;51.828;5.688;2022-11-12T10:31:06;12.25;;;6.82;;
42244;SDS011;27912;51.828;5.688;2022-11-12T10:33:37;9.57;;;7.00;;
42244;SDS011;27912;51.828;5.688;2022-11-12T10:38:59;10.50;;;6.72;;
42244;SDS011;27912;51.828;5.688;2022-11-12T10:43:52;9.32;;;6.20;;
42244;SDS011;27912;51.828;5.688;2022-11-12T10:46:21;11.43;;;6.78;;
42244;SDS011;27912;51.828;5.688;2022-11-12T10:48:52;11.35;;;6.57;;
42244;SDS011;27912;51.828;5.688;2022-11-12T10:51:25;9.95;;;6.63;;
42244;SDS011;27912;51.828;5.688;2022-11-12T10:53:52;11.32;;;7.50;;
42244;SDS011;27912;51.828;5.688;2022-11-12T10:56:30;11.65;;;6.85;;
42244;SDS011;27912;51.828;5.688;2022-11-12T10:59:07;8.77;;;6.70;;
42244;SDS011;27912;51.828;5.688;2022-11-12T11:01:41;7.97;;;6.57;;
42244;SDS011;27912;51.828;5.688;2022-11-12T11:04:21;7.35;;;5.32;;
42244;SDS011;27912;51.828;5.688;2022-11-12T11:06:47;8.52;;;5.47;;
42244;SDS011;27912;51.828;5.688;2022-11-12T11:11:50;5.75;;;4.95;;
42244;SDS011;27912;51.828;5.688;2022-11-12T11:16:53;8.88;;;5.15;;
42244;SDS011;27912;51.828;5.688;2022-11-12T11:19:31;7.50;;;5.10;;
42244;SDS011;27912;51.828;5.688;2022-11-12T11:22:05;8.07;;;5.20;;
42244;SDS011;27912;51.828;5.688;2022-11-12T11:24:47;7.32;;;5.22;;
42244;SDS011;27912;51.828;5.688;2022-11-12T11:30:09;7.53;;;5.10;;
42244;SDS011;27912;51.828;5.688;2022-11-12T11:44:20;8.52;;;5.85;;
42244;SDS011;27912;51.828;5.688;2022-11-12T11:49:22;7.53;;;5.35;;
42244;SDS011;27912;51.828;5.688;2022-11-12T11:52:01;8.65;;;5.85;;
42244;SDS011;27912;51.828;5.688;2022-11-12T11:58:15;7.13;;;5.35;;
42244;SDS011;27912;51.828;5.688;2022-11-12T12:00:30;8.82;;;5.55;;
42244;SDS011;27912;51.828;5.688;2022-11-12T12:03:07;9.38;;;5.10;;
42244;SDS011;27912;51.828;5.688;2022-11-12T12:05:42;7.32;;;5.07;;
42244;SDS011;27912;51.828;5.688;2022-11-12T12:08:45;6.70;;;4.90;;
42244;SDS011;27912;51.828;5.688;2022-11-12T12:20:39;8.57;;;6.10;;
42244;SDS011;27912;51.828;5.688;2022-11-12T12:23:12;8.55;;;5.32;;
42244;SDS011;27912;51.828;5.688;2022-11-12T12:25:59;7.00;;;4.82;;
42244;SDS011;27912;51.828;5.688;2022-11-12T12:28:32;7.57;;;4.85;;
42244;SDS011;27912;51.828;5.688;2022-11-12T12:31:06;5.93;;;4.63;;
42244;SDS011;27912;51.828;5.688;2022-11-12T12:36:14;6.40;;;3.85;;
42244;SDS011;27912;51.828;5.688;2022-11-12T12:38:45;5.28;;;3.30;;
42244;SDS011;27912;51.828;5.688;2022-11-12T12:41:20;4.30;;;2.42;;
42244;SDS011;27912;51.828;5.688;2022-11-12T12:46:27;3.92;;;2.85;;
42244;SDS011;27912;51.828;5.688;2022-11-12T12:48:55;4.93;;;2.90;;
42244;SDS011;27912;51.828;5.688;2022-11-12T12:51:23;6.15;;;2.60;;
42244;SDS011;27912;51.828;5.688;2022-11-12T12:53:53;5.57;;;2.72;;
42244;SDS011;27912;51.828;5.688;2022-11-12T12:58:47;4.75;;;2.72;;
42244;SDS011;27912;51.828;5.688;2022-11-12T13:03:52;5.05;;;3.65;;
42244;SDS011;27912;51.828;5.688;2022-11-12T13:08:51;6.63;;;4.05;;
42244;SDS011;27912;51.828;5.688;2022-11-12T13:17:10;10.32;;;5.22;;
42244;SDS011;27912;51.828;5.688;2022-11-12T13:19:37;7.53;;;5.50;;
42244;SDS011;27912;51.828;5.688;2022-11-12T13:25:27;8.55;;;5.30;;
42244;SDS011;27912;51.828;5.688;2022-11-12T13:35:28;8.50;;;5.30;;
42244;SDS011;27912;51.828;5.688;2022-11-12T13:40:39;7.90;;;5.30;;
42244;SDS011;27912;51.828;5.688;2022-11-12T13:46:01;8.10;;;4.55;;
42244;SDS011;27912;51.828;5.688;2022-11-12T13:48:29;7.22;;;5.22;;
42244;SDS011;27912;51.828;5.688;2022-11-12T13:51:00;5.70;;;4.93;;
42244;SDS011;27912;51.828;5.688;2022-11-12T13:53:29;7.85;;;5.10;;
42244;SDS011;27912;51.828;5.688;2022-11-12T13:55:57;6.25;;;5.00;;
42244;SDS011;27912;51.828;5.688;2022-11-12T13:58:35;7.35;;;4.53;;
42244;SDS011;27912;51.828;5.688;2022-11-12T14:01:04;6.75;;;4.63;;
42244;SDS011;27912;51.828;5.688;2022-11-12T14:03:32;8.60;;;5.15;;
42244;SDS011;27912;51.828;5.688;2022-11-12T14:06:16;7.03;;;5.10;;
42244;SDS011;27912;51.828;5.688;2022-11-12T14:09:45;9.32;;;5.35;;
42244;SDS011;27912;51.828;5.688;2022-11-12T14:19:48;7.45;;;5.30;;
42244;SDS011;27912;51.828;5.688;2022-11-12T14:22:37;7.82;;;5.90;;
42244;SDS011;27912;51.828;5.688;2022-11-12T14:25:20;8.80;;;5.28;;
42244;SDS011;27912;51.828;5.688;2022-11-12T14:27:48;9.43;;;5.78;;
42244;SDS011;27912;51.828;5.688;2022-11-12T14:30:16;9.48;;;5.45;;
42244;SDS011;27912;51.828;5.688;2022-11-12T14:32:46;7.10;;;4.97;;
42244;SDS011;27912;51.828;5.688;2022-11-12T14:35:35;9.05;;;5.78;;
42244;SDS011;27912;51.828;5.688;2022-11-12T14:38:04;7.55;;;5.63;;
42244;SDS011;27912;51.828;5.688;2022-11-12T14:40:40;7.22;;;5.50;;
42244;SDS011;27912;51.828;5.688;2022-11-12T14:43:23;7.88;;;5.18;;
42244;SDS011;27912;51.828;5.688;2022-11-12T14:45:55;6.88;;;4.85;;
42244;SDS011;27912;51.828;5.688;2022-11-12T14:48:23;7.70;;;5.55;;
42244;SDS011;27912;51.828;5.688;2022-11-12T14:50:50;10.65;;;5.93;;
42244;SDS011;27912;51.828;5.688;2022-11-12T14:53:22;8.32;;;6.32;;
42244;SDS011;27912;51.828;5.688;2022-11-12T14:55:53;7.30;;;5.22;;
42244;SDS011;27912;51.828;5.688;2022-11-12T14:58:21;9.27;;;6.22;;
42244;SDS011;27912;51.828;5.688;2022-11-12T15:00:48;7.80;;;6.22;;
42244;SDS011;27912;51.828;5.688;2022-11-12T15:03:29;7.95;;;5.70;;
42244;SDS011;27912;51.828;5.688;2022-11-12T15:08:27;6.93;;;5.70;;
42244;SDS011;27912;51.828;5.688;2022-11-12T15:11:14;8.90;;;6.47;;
42244;SDS011;27912;51.828;5.688;2022-11-12T15:13:40;10.70;;;6.68;;
42244;SDS011;27912;51.828;5.688;2022-11-12T15:16:07;9.00;;;5.47;;
42244;SDS011;27912;51.828;5.688;2022-11-12T15:18:34;8.63;;;5.88;;
42244;SDS011;27912;51.828;5.688;2022-11-12T15:26:37;12.35;;;6.20;;
42244;SDS011;27912;51.828;5.688;2022-11-12T15:29:24;8.43;;;5.87;;
42244;SDS011;27912;51.828;5.688;2022-11-12T15:34:32;8.43;;;5.75;;
42244;SDS011;27912;51.828;5.688;2022-11-12T15:37:09;10.15;;;6.20;;
42244;SDS011;27912;51.828;5.688;2022-11-12T15:39:44;8.77;;;5.97;;
42244;SDS011;27912;51.828;5.688;2022-11-12T15:42:16;9.38;;;6.50;;
42244;SDS011;27912;51.828;5.688;2022-11-12T15:44:44;8.43;;;6.35;;
42244;SDS011;27912;51.828;5.688;2022-11-12T15:47:17;9.70;;;6.10;;
42244;SDS011;27912;51.828;5.688;2022-11-12T15:49:47;9.98;;;6.30;;
42244;SDS011;27912;51.828;5.688;2022-11-12T15:52:18;9.43;;;6.72;;
42244;SDS011;27912;51.828;5.688;2022-11-12T15:54:44;8.52;;;6.32;;
42244;SDS011;27912;51.828;5.688;2022-11-12T15:57:14;13.52;;;6.70;;
42244;SDS011;27912;51.828;5.688;2022-11-12T16:00:35;11.80;;;6.88;;
42244;SDS011;27912;51.828;5.688;2022-11-12T16:03:16;20.85;;;8.00;;
42244;SDS011;27912;51.828;5.688;2022-11-12T16:05:44;14.63;;;7.18;;
42244;SDS011;27912;51.828;5.688;2022-11-12T16:08:10;11.77;;;7.03;;
42244;SDS011;27912;51.828;5.688;2022-11-12T16:10:40;13.50;;;7.15;;
42244;SDS011;27912;51.828;5.688;2022-11-12T16:16:03;11.73;;;7.30;;
42244;SDS011;27912;51.828;5.688;2022-11-12T16:18:32;11.00;;;6.43;;
42244;SDS011;27912;51.828;5.688;2022-11-12T16:20:57;13.45;;;7.80;;
42244;SDS011;27912;51.828;5.688;2022-11-12T16:23:23;11.32;;;7.80;;
42244;SDS011;27912;51.828;5.688;2022-11-12T16:25:48;15.82;;;7.57;;
42244;SDS011;27912;51.828;5.688;2022-11-12T16:28:15;11.27;;;6.97;;